Time;durP1;ratioP1;P1;durP2;ratioP2;P2;SDS_P1;SDS_P2;PMS_P1;PMS_P2;Temp;Humidity;BMP_temperature;BMP_pressure;BME280_temperature;BME280_humidity;BME280_pressure;Samples;Min_cycle;Max_cycle;Signal;HPM_P1;HPM_P2
2022/09/04 00:04:42;;;;;;;0.90;0.40;;;16.50;99.90;;;;;;10342096;28;20061;-83
2022/09/04 00:10:08;;;;;;;7.50;0.63;;;16.40;99.90;;;;;;10350504;28;20085;-83
2022/09/04 00:15:21;;;;;;;1.02;0.40;;;16.30;99.90;;;;;;10348284;28;20062;-83
2022/09/04 00:20:57;;;;;;;3.25;0.50;;;16.30;99.90;;;;;;10363531;28;20057;-83
2022/09/04 00:26:38;;;;;;;1.98;0.43;;;16.20;99.90;;;;;;10345564;28;20054;-83
2022/09/04 00:31:50;;;;;;;3.35;0.40;;;16.20;99.90;;;;;;10368896;28;20129;-83
2022/09/04 00:36:57;;;;;;;1.10;0.40;;;16.10;99.90;;;;;;10363173;28;20042;-83
2022/09/04 00:42:17;;;;;;;2.15;0.50;;;16.00;99.90;;;;;;10337442;28;20689;-83
2022/09/04 00:47:47;;;;;;;0.90;0.35;;;16.00;99.90;;;;;;10336171;28;20369;-83
2022/09/04 00:53:13;;;;;;;4.25;0.40;;;16.00;99.90;;;;;;10258912;28;20483;-83
2022/09/04 00:58:23;;;;;;;0.63;0.30;;;15.90;99.90;;;;;;10356480;28;20050;-83
2022/09/04 01:03:39;;;;;;;1.00;0.30;;;15.80;99.90;;;;;;10359787;28;20389;-83
2022/09/04 01:09:15;;;;;;;1.75;0.45;;;15.70;99.90;;;;;;10278868;28;20051;-92
2022/09/04 01:15:10;;;;;;;2.20;0.52;;;15.50;99.90;;;;;;9916764;28;20041;-91
2022/09/04 01:20:52;;;;;;;2.53;0.70;;;15.40;99.90;;;;;;9866558;28;20053;-91
2022/09/04 01:26:46;;;;;;;1.13;0.40;;;15.50;99.90;;;;;;10041049;28;20038;-91
2022/09/04 01:31:53;;;;;;;3.15;0.40;;;15.50;99.90;;;;;;10087062;28;20055;-91
2022/09/04 01:37:26;;;;;;;2.05;0.30;;;15.50;99.90;;;;;;10133571;28;20718;-92
2022/09/04 01:43:17;;;;;;;0.85;0.40;;;15.50;99.90;;;;;;10020168;28;20044;-92
2022/09/04 01:48:50;;;;;;;2.57;0.40;;;15.50;99.90;;;;;;10069445;28;20053;-92
2022/09/04 01:54:50;;;;;;;0.98;0.50;;;15.60;99.90;;;;;;10230886;28;20034;-92
2022/09/04 02:00:14;;;;;;;1.70;0.50;;;15.60;99.90;;;;;;10100288;28;20047;-92
2022/09/04 02:05:30;;;;;;;1.13;0.40;;;15.70;99.90;;;;;;10146889;28;20064;-91
2022/09/04 02:11:12;;;;;;;2.17;0.40;;;15.70;99.90;;;;;;10140076;28;20076;-91
2022/09/04 02:16:58;;;;;;;2.83;0.50;;;15.80;99.90;;;;;;10007377;28;20115;-91
2022/09/04 02:22:13;;;;;;;1.05;0.40;;;15.80;99.90;;;;;;10020913;28;20039;-91
2022/09/04 02:27:22;;;;;;;1.17;0.40;;;15.90;99.90;;;;;;10122551;28;20050;-93
2022/09/04 02:32:37;;;;;;;1.38;0.30;;;15.90;99.90;;;;;;10328191;28;20079;-93
2022/09/04 02:37:56;;;;;;;0.98;0.43;;;16.00;99.90;;;;;;10199504;28;20061;-93
2022/09/04 02:43:23;;;;;;;2.70;0.40;;;16.00;99.90;;;;;;10309298;28;20062;-92
2022/09/04 02:48:45;;;;;;;0.80;0.40;;;16.00;99.90;;;;;;10236997;28;20142;-92
2022/09/04 02:54:15;;;;;;;1.38;0.40;;;16.10;99.90;;;;;;10179196;28;20041;-93
2022/09/04 02:59:51;;;;;;;0.43;0.20;;;16.20;99.90;;;;;;10126390;28;20409;-93
2022/09/04 03:05:20;;;;;;;1.47;0.40;;;16.20;99.90;;;;;;9967768;28;20549;-93
2022/09/04 03:10:32;;;;;;;1.20;0.45;;;16.40;99.90;;;;;;10016500;28;20039;-92
2022/09/04 03:15:48;;;;;;;3.00;0.50;;;16.30;99.90;;;;;;10242679;28;20550;-92
2022/09/04 03:20:54;;;;;;;1.33;0.60;;;16.50;99.90;;;;;;10214962;28;20097;-92
2022/09/04 03:26:14;;;;;;;1.33;0.40;;;16.40;99.90;;;;;;10337069;28;20042;-92
2022/09/04 03:31:47;;;;;;;1.80;0.47;;;16.50;99.90;;;;;;10310194;28;20038;-92
2022/09/04 03:36:52;;;;;;;2.10;0.30;;;16.60;99.90;;;;;;10279130;28;20046;-93
2022/09/04 03:42:25;;;;;;;1.23;0.40;;;16.70;99.90;;;;;;10257378;28;20042;-92
2022/09/04 03:48:02;;;;;;;2.55;0.60;;;16.80;99.90;;;;;;10349677;28;20472;-92
2022/09/04 03:53:36;;;;;;;0.80;0.50;;;16.80;99.90;;;;;;10336991;28;20053;-92
2022/09/04 03:58:53;;;;;;;1.83;0.55;;;16.90;99.90;;;;;;10187038;28;20047;-93
2022/09/04 04:04:19;;;;;;;1.20;0.50;;;16.90;99.90;;;;;;10263998;28;20046;-92
2022/09/04 04:09:46;;;;;;;2.42;0.60;;;17.00;99.90;;;;;;10243956;28;20471;-92
2022/09/04 04:15:43;;;;;;;1.90;0.60;;;17.10;99.90;;;;;;10287561;28;20054;-92
2022/09/04 04:21:35;;;;;;;1.95;0.70;;;17.10;99.90;;;;;;10216656;28;20049;-93
2022/09/04 04:26:40;;;;;;;1.88;0.98;;;17.10;99.90;;;;;;10189689;28;20507;-93
2022/09/04 04:32:29;;;;;;;3.88;1.00;;;17.20;99.90;;;;;;10241933;28;20065;-93
2022/09/04 04:37:42;;;;;;;3.45;0.90;;;17.10;99.90;;;;;;10199317;28;20193;-92
2022/09/04 04:42:53;;;;;;;3.28;1.33;;;17.10;99.90;;;;;;10278383;28;20139;-93
2022/09/04 04:48:22;;;;;;;4.10;1.70;;;17.10;99.90;;;;;;10273182;28;20057;-92
2022/09/04 04:53:46;;;;;;;2.92;1.38;;;17.20;99.90;;;;;;10224697;28;20047;-93
2022/09/04 04:59:22;;;;;;;3.03;1.60;;;17.20;99.90;;;;;;10124455;28;20047;-93
2022/09/04 05:05:01;;;;;;;3.20;1.40;;;17.20;99.90;;;;;;10076836;28;20066;-93
2022/09/04 05:10:28;;;;;;;2.38;1.23;;;17.30;99.90;;;;;;10006304;28;20534;-92
2022/09/04 05:15:50;;;;;;;4.75;1.40;;;17.30;99.90;;;;;;10114955;28;20047;-92
2022/09/04 05:21:22;;;;;;;3.05;1.23;;;17.40;99.90;;;;;;10314583;28;20042;-92
2022/09/04 05:26:38;;;;;;;2.35;1.30;;;17.40;99.90;;;;;;10331262;28;20042;-92
2022/09/04 05:31:52;;;;;;;2.47;1.00;;;17.30;99.90;;;;;;10315824;28;20052;-92
2022/09/04 05:37:15;;;;;;;1.42;0.90;;;17.30;99.90;;;;;;10275905;28;20053;-92
2022/09/04 05:42:56;;;;;;;1.30;0.80;;;17.40;99.90;;;;;;10310381;28;20045;-93
2022/09/04 05:48:24;;;;;;;2.92;1.00;;;17.50;99.90;;;;;;10324276;28;20147;-91
2022/09/04 05:53:50;;;;;;;4.22;1.58;;;17.50;99.90;;;;;;10303343;28;20064;-92
2022/09/04 05:59:15;;;;;;;2.22;1.38;;;17.50;99.90;;;;;;10328649;28;20132;-91
2022/09/04 06:04:17;;;;;;;3.58;1.95;;;17.60;99.90;;;;;;10337287;28;20053;-91
2022/09/04 06:09:52;;;;;;;8.13;1.98;;;17.70;99.90;;;;;;10323710;28;20070;-91
2022/09/04 06:15:09;;;;;;;5.60;2.08;;;17.60;99.90;;;;;;10333391;28;20057;-91
2022/09/04 06:20:21;;;;;;;3.00;1.95;;;17.70;99.90;;;;;;10333482;28;20045;-91
2022/09/04 06:25:39;;;;;;;7.47;2.90;;;17.70;99.90;;;;;;10317707;28;20044;-92
2022/09/04 06:31:00;;;;;;;4.82;1.88;;;17.60;99.90;;;;;;10337485;28;20133;-93
2022/09/04 06:36:44;;;;;;;7.22;2.72;;;17.60;99.90;;;;;;10192460;28;20077;-92
2022/09/04 06:42:07;;;;;;;4.53;2.58;;;17.80;99.90;;;;;;10009957;28;20064;-93
2022/09/04 06:48:03;;;;;;;6.40;2.63;;;17.80;99.90;;;;;;10043812;28;20057;-93
2022/09/04 06:54:30;;;;;;;5.80;2.40;;;18.00;99.90;;;;;;10087337;28;20051;-93
2022/09/04 07:07:05;;;;;;;6.72;2.60;;;18.40;99.90;;;;;;9991424;28;20107;-93
2022/09/04 07:13:12;;;;;;;7.93;2.75;;;18.60;99.90;;;;;;9986128;28;20058;-93
2022/09/04 07:19:31;;;;;;;16.80;4.03;;;18.80;99.90;;;;;;10051720;28;20050;-92
2022/09/04 07:25:16;;;;;;;17.15;4.50;;;18.90;99.90;;;;;;10026479;28;20046;-92
2022/09/04 07:31:19;;;;;;;11.25;4.05;;;18.90;99.90;;;;;;10130539;28;20045;-92
2022/09/04 07:36:56;;;;;;;12.98;3.60;;;19.20;99.90;;;;;;9939418;28;20102;-92
2022/09/04 07:43:35;;;;;;;11.65;3.55;;;19.40;99.90;;;;;;9959554;28;20474;-93
2022/09/04 07:49:26;;;;;;;9.63;3.40;;;19.60;99.90;;;;;;9989232;28;20129;-91
2022/09/04 07:55:21;;;;;;;9.68;3.40;;;19.50;99.90;;;;;;9927148;28;20052;-91
2022/09/04 08:01:42;;;;;;;9.68;3.50;;;19.40;99.90;;;;;;9898683;28;20533;-92
2022/09/04 08:07:36;;;;;;;11.23;4.30;;;19.60;99.90;;;;;;9977508;28;20052;-92
2022/09/04 08:13:12;;;;;;;14.07;4.38;;;19.50;99.90;;;;;;9972699;28;20637;-92
2022/09/04 08:19:05;;;;;;;12.45;4.00;;;19.50;99.90;;;;;;9897677;28;20114;-92
2022/09/04 08:24:57;;;;;;;13.93;4.63;;;19.60;99.90;;;;;;10043603;28;20457;-92
2022/09/04 08:30:13;;;;;;;15.50;5.40;;;19.60;99.90;;;;;;10156060;28;20400;-92
2022/09/04 08:36:01;;;;;;;22.17;6.20;;;19.50;99.90;;;;;;10209358;28;20057;-92
2022/09/04 08:42:06;;;;;;;23.75;7.13;;;19.50;99.90;;;;;;10130801;28;20581;-90
2022/09/04 08:47:16;;;;;;;28.40;8.70;;;19.50;99.90;;;;;;10327776;28;21020;-89
2022/09/04 08:52:36;;;;;;;20.33;7.88;;;19.40;99.90;;;;;;10351343;28;20049;-84
2022/09/04 08:57:59;;;;;;;23.42;7.75;;;19.90;99.90;;;;;;10330187;28;20591;-83
2022/09/04 09:03:23;;;;;;;27.35;8.00;;;20.10;99.90;;;;;;10334684;28;20079;-84
2022/09/04 09:08:57;;;;;;;24.50;7.10;;;20.30;99.90;;;;;;10361283;28;20078;-83
2022/09/04 09:14:40;;;;;;;22.42;9.25;;;20.40;99.90;;;;;;10339527;28;20101;-83
2022/09/04 09:19:45;;;;;;;24.38;7.82;;;20.10;99.90;;;;;;10339851;28;20049;-83
2022/09/04 09:25:08;;;;;;;20.23;8.05;;;20.10;99.90;;;;;;10187746;28;20052;-90
2022/09/04 09:30:40;;;;;;;14.70;6.03;;;20.10;99.90;;;;;;10030211;28;20132;-90
2022/09/04 09:36:23;;;;;;;18.67;5.70;;;20.30;99.90;;;;;;10044915;28;20133;-92
2022/09/04 09:42:58;;;;;;;11.15;4.53;;;20.60;99.90;;;;;;9980061;28;20067;-92
2022/09/04 09:49:01;;;;;;;;;;;;;;;;;;;;;
2022/09/04 09:55:09;;;;;;;12.18;5.85;;;20.90;99.90;;;;;;9947621;28;20046;-91
2022/09/04 10:01:23;;;;;;;10.55;4.70;;;21.10;99.90;;;;;;9874438;28;20048;-91
2022/09/04 10:08:02;;;;;;;11.93;4.07;;;21.30;99.90;;;;;;9867454;29;20044;-92
2022/09/04 10:13:58;;;;;;;8.57;4.05;;;21.60;99.90;;;;;;10118460;28;20042;-84
2022/09/04 10:19:28;;;;;;;8.45;4.30;;;21.80;99.90;;;;;;10226679;28;20061;-84
2022/09/04 10:25:06;;;;;;;9.32;4.00;;;22.00;99.90;;;;;;10328553;28;20466;-84
2022/09/04 10:30:28;;;;;;;6.55;3.85;;;21.90;99.90;;;;;;10327710;28;20058;-84
2022/09/04 10:35:33;;;;;;;8.07;3.97;;;22.20;99.90;;;;;;10362515;28;20060;-84
2022/09/04 10:41:17;;;;;;;8.60;3.90;;;22.40;99.90;;;;;;10338032;28;20118;-83
2022/09/04 10:46:41;;;;;;;7.47;3.65;;;22.50;99.90;;;;;;10350192;28;20046;-83
2022/09/04 10:52:16;;;;;;;8.05;3.90;;;22.90;99.90;;;;;;10359301;28;20045;-84
2022/09/04 10:57:42;;;;;;;8.10;4.30;;;23.20;99.90;;;;;;10339174;28;20041;-83
2022/09/04 11:03:21;;;;;;;6.57;4.00;;;23.20;99.90;;;;;;10353797;28;26184;-84
2022/09/04 11:08:42;;;;;;;6.20;3.55;;;23.30;99.90;;;;;;10368686;28;20058;-83
2022/09/04 11:14:27;;;;;;;5.53;2.83;;;23.60;99.90;;;;;;10349376;28;20049;-83
2022/09/04 11:20:14;;;;;;;5.22;2.75;;;23.60;99.90;;;;;;10357138;28;20041;-83
2022/09/04 11:25:43;;;;;;;4.03;2.35;;;23.70;99.90;;;;;;10321247;28;20056;-83
2022/09/04 11:30:55;;;;;;;2.40;1.83;;;23.80;99.90;;;;;;10351899;28;20069;-84
2022/09/04 11:36:29;;;;;;;2.85;0.93;;;24.00;99.90;;;;;;10127736;28;20099;-91
2022/09/04 11:42:18;;;;;;;3.63;1.30;;;24.00;99.90;;;;;;10342801;28;20052;-91
2022/09/04 11:47:48;;;;;;;2.50;0.90;;;24.00;99.90;;;;;;10315459;28;20030;-90
2022/09/04 11:53:10;;;;;;;1.33;0.82;;;24.50;99.90;;;;;;10289145;28;20042;-90
2022/09/04 11:58:35;;;;;;;0.52;0.40;;;24.70;99.90;;;;;;10345292;28;20046;-90
2022/09/04 12:04:01;;;;;;;3.00;0.73;;;24.70;99.90;;;;;;10331533;28;20056;-90
2022/09/04 12:09:37;;;;;;;1.10;0.50;;;24.70;99.90;;;;;;10343227;28;20046;-89
2022/09/04 12:14:45;;;;;;;1.67;0.52;;;24.70;99.90;;;;;;10338716;28;20041;-89
2022/09/04 12:20:22;;;;;;;3.08;0.70;;;25.10;99.90;;;;;;10328795;28;20389;-89
2022/09/04 12:25:48;;;;;;;1.20;0.50;;;25.20;99.90;;;;;;10336418;28;20459;-90
2022/09/04 12:31:14;;;;;;;1.40;0.50;;;25.50;99.90;;;;;;10346150;28;20050;-89
2022/09/04 12:36:25;;;;;;;2.00;0.50;;;25.50;99.90;;;;;;10344568;28;20038;-90
2022/09/04 12:41:36;;;;;;;3.03;0.60;;;26.00;99.90;;;;;;10361957;28;20162;-90
2022/09/04 12:47:27;;;;;;;1.05;0.95;;;26.30;99.90;;;;;;10344636;28;20053;-90
2022/09/04 12:52:50;;;;;;;0.75;0.57;;;26.30;99.90;;;;;;10200522;28;20091;-90
2022/09/04 12:58:02;;;;;;;0.95;0.68;;;26.30;99.70;;;;;;10321879;28;20076;-90
2022/09/04 13:03:28;;;;;;;1.25;0.50;;;26.50;99.90;;;;;;10328314;28;20228;-90
2022/09/04 13:08:54;;;;;;;0.93;0.50;;;27.00;99.60;;;;;;10359576;28;20045;-90
2022/09/04 13:13:58;;;;;;;0.47;0.40;;;27.40;98.10;;;;;;10355110;28;20061;-90
2022/09/04 13:19:34;;;;;;;0.40;0.37;;;27.00;97.30;;;;;;10347283;28;20414;-90
2022/09/04 13:25:13;;;;;;;0.80;0.20;;;27.90;96.80;;;;;;10315316;28;20050;-90
2022/09/04 13:30:24;;;;;;;3.47;0.20;;;28.40;94.70;;;;;;10332437;28;20148;-90
2022/09/04 13:35:41;;;;;;;1.23;0.30;;;28.40;92.50;;;;;;10320160;28;20042;-90
2022/09/04 13:41:01;;;;;;;0.95;0.30;;;28.50;93.30;;;;;;10329110;28;20046;-90
2022/09/04 13:46:10;;;;;;;0.60;0.20;;;28.70;91.90;;;;;;10324965;28;20486;-90
2022/09/04 13:51:22;;;;;;;0.68;0.32;;;28.40;91.80;;;;;;10301410;28;20188;-90
2022/09/04 13:56:40;;;;;;;1.85;0.30;;;28.20;91.70;;;;;;10308199;28;20050;-90
2022/09/04 14:01:48;;;;;;;1.85;0.30;;;28.60;91.50;;;;;;10316179;28;20039;-90
2022/09/04 14:06:50;;;;;;;1.27;0.30;;;28.70;90.10;;;;;;10314634;28;20046;-90
2022/09/04 14:12:12;;;;;;;0.55;0.20;;;28.90;89.20;;;;;;10325075;28;20485;-90
2022/09/04 14:17:25;;;;;;;0.50;0.25;;;28.70;88.40;;;;;;10325967;28;20053;-90
2022/09/04 14:23:03;;;;;;;2.15;0.30;;;28.70;87.50;;;;;;10323086;28;20084;-90
2022/09/04 14:28:30;;;;;;;0.32;0.20;;;28.00;90.10;;;;;;10328705;28;20411;-90
2022/09/04 14:33:40;;;;;;;1.80;0.20;;;28.30;90.40;;;;;;10344732;28;20057;-90
2022/09/04 14:38:48;;;;;;;1.20;0.20;;;28.90;90.00;;;;;;10339267;28;20061;-88
2022/09/04 14:44:24;;;;;;;0.45;0.20;;;29.30;88.20;;;;;;10358807;28;20043;-88
2022/09/04 14:49:30;;;;;;;;;;;29.30;84.70;;;;;;10339059;28;20051;-88
2022/09/04 14:54:38;;;;;;;0.32;0.20;;;29.40;85.10;;;;;;10310754;28;19925;-88
2022/09/04 14:59:48;;;;;;;0.90;0.10;;;29.60;84.70;;;;;;10339508;28;20068;-88
2022/09/04 15:05:15;;;;;;;0.28;0.10;;;29.30;81.40;;;;;;10359778;28;20046;-88
2022/09/04 15:10:23;;;;;;;0.73;0.22;;;28.90;81.10;;;;;;10336002;28;20117;-89
2022/09/04 15:15:37;;;;;;;0.30;0.15;;;29.20;81.10;;;;;;10344322;28;20057;-88
2022/09/04 15:20:54;;;;;;;0.87;0.20;;;29.20;82.00;;;;;;10323130;28;20077;-88
2022/09/04 15:26:06;;;;;;;0.73;0.30;;;28.60;83.20;;;;;;10326070;28;20038;-88
2022/09/04 15:31:14;;;;;;;0.55;0.25;;;27.90;84.20;;;;;;10344502;28;20063;-88
2022/09/04 15:36:22;;;;;;;0.13;0.10;;;28.10;85.10;;;;;;10360338;28;20129;-89
2022/09/04 15:41:44;;;;;;;0.20;0.10;;;27.90;82.90;;;;;;10327745;28;20469;-88
2022/09/04 15:46:55;;;;;;;2.55;0.20;;;28.10;82.60;;;;;;10352045;28;21420;-89
2022/09/04 15:52:08;;;;;;;1.55;0.10;;;27.90;83.10;;;;;;10337672;28;20042;-89
2022/09/04 15:57:38;;;;;;;1.90;0.17;;;27.90;82.30;;;;;;10330521;28;20468;-88
2022/09/04 16:02:53;;;;;;;0.85;0.25;;;27.80;81.60;;;;;;10334713;28;20044;-88
2022/09/04 16:08:08;;;;;;;0.45;0.20;;;27.90;83.60;;;;;;10328983;28;20060;-88
2022/09/04 16:13:34;;;;;;;0.20;0.10;;;27.70;83.60;;;;;;10340464;28;20104;-88
2022/09/04 16:18:45;;;;;;;2.97;0.20;;;27.70;82.10;;;;;;10322687;28;20038;-89
2022/09/04 16:23:48;;;;;;;0.28;0.17;;;27.70;82.20;;;;;;10333880;28;20046;-89
2022/09/04 16:28:57;;;;;;;0.50;0.15;;;27.40;82.10;;;;;;10345817;28;20042;-89
2022/09/04 16:34:25;;;;;;;1.27;0.10;;;27.40;82.70;;;;;;10341695;28;20873;-89
2022/09/04 16:39:31;;;;;;;0.43;0.13;;;27.40;83.30;;;;;;10310653;28;20427;-89
2022/09/04 16:44:46;;;;;;;0.82;0.13;;;27.30;83.00;;;;;;10330946;28;20072;-89
2022/09/04 16:50:16;;;;;;;0.20;0.10;;;27.50;83.10;;;;;;10351643;28;20042;-90
2022/09/04 16:55:33;;;;;;;0.30;0.10;;;27.50;83.20;;;;;;10339949;28;20042;-89
2022/09/04 17:00:57;;;;;;;0.68;0.10;;;27.30;84.00;;;;;;10339493;28;20074;-89
2022/09/04 17:06:29;;;;;;;0.60;0.45;;;27.30;85.50;;;;;;10337601;28;20061;-89
2022/09/04 17:11:41;;;;;;;0.30;0.20;;;27.20;86.10;;;;;;10346084;28;20056;-89
2022/09/04 17:17:15;;;;;;;0.20;0.20;;;27.00;85.50;;;;;;10316389;28;20069;-90
2022/09/04 17:23:02;;;;;;;0.57;0.40;;;26.80;87.00;;;;;;10358637;28;20054;-90
2022/09/04 17:28:44;;;;;;;2.00;0.20;;;26.70;85.80;;;;;;10301433;28;20053;-90
2022/09/04 17:34:24;;;;;;;0.40;0.20;;;26.50;87.40;;;;;;10287725;28;20497;-90
2022/09/04 17:40:00;;;;;;;1.65;0.55;;;26.40;88.40;;;;;;10297951;28;20050;-90
2022/09/04 17:45:37;;;;;;;;;;;26.20;88.80;;;;;;10312666;28;20058;-90
2022/09/04 17:50:52;;;;;;;0.52;0.30;;;26.00;89.70;;;;;;10286011;28;19957;-90
2022/09/04 17:56:12;;;;;;;0.70;0.30;;;25.80;90.10;;;;;;10280368;28;20065;-90
2022/09/04 18:01:34;;;;;;;0.65;0.32;;;25.60;90.30;;;;;;10293877;28;20054;-90
2022/09/04 18:06:41;;;;;;;0.50;0.40;;;25.40;90.90;;;;;;10295830;28;20492;-90
2022/09/04 18:11:59;;;;;;;1.02;0.40;;;25.20;91.20;;;;;;10301146;28;20038;-90
2022/09/04 18:17:44;;;;;;;1.88;0.80;;;24.90;91.60;;;;;;10322083;28;20054;-90
2022/09/04 18:23:12;;;;;;;4.38;0.50;;;24.70;92.50;;;;;;10238903;28;20543;-90
2022/09/04 18:28:24;;;;;;;1.42;0.50;;;24.50;92.90;;;;;;10293348;28;20056;-90
2022/09/04 18:33:41;;;;;;;1.27;0.65;;;24.20;93.80;;;;;;10292910;28;20046;-91
2022/09/04 18:39:11;;;;;;;2.15;0.38;;;24.00;94.10;;;;;;10281485;28;20496;-90
2022/09/04 18:44:22;;;;;;;1.63;0.45;;;23.80;94.50;;;;;;10281258;28;20065;-90
2022/09/04 18:49:53;;;;;;;0.88;0.40;;;23.60;95.10;;;;;;10296458;28;20046;-90
2022/09/04 18:55:22;;;;;;;2.53;0.70;;;23.50;95.50;;;;;;10295117;28;20460;-90
2022/09/04 19:00:29;;;;;;;1.20;0.47;;;23.20;96.40;;;;;;10300062;28;20060;-90
2022/09/04 19:05:36;;;;;;;1.38;0.77;;;23.00;97.10;;;;;;10274672;28;20037;-89
2022/09/04 19:10:50;;;;;;;1.98;0.50;;;22.80;96.40;;;;;;10314365;28;20106;-89
2022/09/04 19:16:06;;;;;;;;;;;22.60;96.60;;;;;;10287165;28;20050;-89
2022/09/04 19:21:11;;;;;;;2.53;0.85;;;22.40;96.90;;;;;;10291759;28;19936;-89
2022/09/04 19:26:41;;;;;;;3.00;0.70;;;22.30;97.40;;;;;;10316731;28;20133;-89
2022/09/04 19:32:07;;;;;;;3.95;0.60;;;22.10;97.30;;;;;;10309989;28;20041;-90
2022/09/04 19:37:33;;;;;;;0.52;0.40;;;21.80;97.60;;;;;;10305641;28;20050;-91
2022/09/04 19:43:10;;;;;;;1.30;0.40;;;21.60;98.00;;;;;;10319253;28;20050;-88
2022/09/04 19:48:36;;;;;;;;;;;21.50;98.60;;;;;;10310142;28;20062;-85
2022/09/04 19:54:11;;;;;;;2.75;0.35;;;21.30;99.10;;;;;;10326653;28;19922;-85
2022/09/04 19:59:35;;;;;;;1.10;0.40;;;21.10;99.60;;;;;;10311838;28;20084;-85
2022/09/04 20:04:47;;;;;;;1.70;0.40;;;21.00;99.90;;;;;;10326560;28;20053;-85
2022/09/04 20:09:53;;;;;;;3.53;0.30;;;20.90;99.90;;;;;;10302469;28;20058;-86
2022/09/04 20:14:58;;;;;;;0.85;0.30;;;20.80;99.90;;;;;;10323896;28;20523;-82
2022/09/04 20:20:04;;;;;;;0.85;0.32;;;20.70;99.90;;;;;;10322008;28;20042;-82
2022/09/04 20:25:06;;;;;;;;;;;20.60;99.90;;;;;;10330325;28;20403;-82
2022/09/04 20:30:23;;;;;;;3.47;0.50;;;20.50;99.90;;;;;;10334871;28;19928;-82
2022/09/04 20:35:29;;;;;;;;;;;20.40;99.90;;;;;;10317153;28;20057;-82
2022/09/04 20:40:41;;;;;;;0.95;0.40;;;20.30;99.90;;;;;;10334770;28;19953;-82
2022/09/04 20:46:07;;;;;;;0.85;0.50;;;20.20;99.90;;;;;;10337150;28;20064;-83
2022/09/04 20:51:31;;;;;;;1.25;0.40;;;20.00;99.90;;;;;;10331017;28;20046;-84
2022/09/04 20:57:09;;;;;;;3.08;0.50;;;20.00;99.90;;;;;;10327945;28;20046;-83
2022/09/04 21:02:40;;;;;;;;;;;19.90;99.90;;;;;;10317260;28;20553;-83
2022/09/04 21:08:23;;;;;;;3.47;0.43;;;19.80;99.90;;;;;;10336023;28;19933;-82
2022/09/04 21:13:36;;;;;;;3.17;0.47;;;19.80;99.90;;;;;;10304105;28;20046;-82
2022/09/04 21:18:47;;;;;;;2.60;0.32;;;19.70;99.90;;;;;;10307301;28;20081;-83
2022/09/04 21:24:29;;;;;;;2.10;0.70;;;19.60;99.90;;;;;;10319251;28;20057;-83
2022/09/04 21:30:01;;;;;;;1.88;0.40;;;19.40;99.90;;;;;;10325655;28;20043;-82
2022/09/04 21:35:33;;;;;;;1.17;0.40;;;19.30;99.90;;;;;;10336409;28;20518;-83
2022/09/04 21:40:42;;;;;;;0.77;0.45;;;19.20;99.90;;;;;;10327546;28;20066;-83
2022/09/04 21:46:18;;;;;;;2.65;0.40;;;19.10;99.90;;;;;;10309397;28;20077;-83
2022/09/04 21:51:52;;;;;;;1.13;0.52;;;19.00;99.90;;;;;;10325347;28;20053;-83
2022/09/04 21:57:26;;;;;;;0.88;0.47;;;18.90;99.90;;;;;;10327598;28;20129;-84
2022/09/04 22:03:38;;;;;;;1.85;0.40;;;18.80;99.90;;;;;;10311960;28;20055;-83
2022/09/04 22:09:03;;;;;;;2.20;1.00;;;18.60;99.90;;;;;;10292024;28;20103;-83
2022/09/04 22:14:35;;;;;;;2.42;0.60;;;18.50;99.90;;;;;;10315966;28;20041;-83
2022/09/04 22:20:04;;;;;;;1.75;0.70;;;18.50;99.90;;;;;;10326280;28;20089;-83
2022/09/04 22:25:30;;;;;;;2.38;0.40;;;18.40;99.90;;;;;;10290399;28;20137;-82
2022/09/04 22:30:57;;;;;;;2.83;0.60;;;18.30;99.90;;;;;;10312667;28;20050;-82
2022/09/04 22:36:14;;;;;;;;;;;18.20;99.90;;;;;;10314926;28;20046;-81
2022/09/04 22:41:35;;;;;;;1.77;0.35;;;18.20;99.90;;;;;;10302026;28;19944;-80
2022/09/04 22:46:57;;;;;;;0.77;0.45;;;18.20;99.90;;;;;;10317526;28;20428;-81
2022/09/04 22:52:05;;;;;;;0.85;0.45;;;18.10;99.90;;;;;;10315343;28;20074;-81
2022/09/04 22:57:45;;;;;;;1.15;0.40;;;18.00;99.90;;;;;;10315621;28;20442;-82
2022/09/04 23:02:52;;;;;;;9.73;1.10;;;18.00;99.90;;;;;;10318393;28;22728;-82
2022/09/04 23:08:25;;;;;;;0.95;0.43;;;18.00;99.90;;;;;;10302645;28;20132;-82
2022/09/04 23:14:06;;;;;;;2.85;0.40;;;17.80;99.90;;;;;;10283283;28;20093;-82
2022/09/04 23:19:29;;;;;;;2.95;0.60;;;17.80;99.90;;;;;;10318915;28;20085;-81
2022/09/04 23:25:18;;;;;;;3.00;0.55;;;17.70;99.90;;;;;;10318852;28;20057;-81
2022/09/04 23:31:05;;;;;;;1.60;0.70;;;17.70;99.90;;;;;;10323271;28;20077;-81
2022/09/04 23:36:32;;;;;;;1.52;0.80;;;17.60;99.90;;;;;;10306417;28;20492;-81
2022/09/04 23:41:49;;;;;;;3.58;0.65;;;17.60;99.90;;;;;;10326363;28;20496;-81
2022/09/04 23:47:11;;;;;;;1.40;0.60;;;17.50;99.90;;;;;;10303226;28;20056;-82
2022/09/04 23:53:01;;;;;;;1.27;0.63;;;17.40;99.90;;;;;;10299551;28;20382;-81
